NEODyS-2

Near Earth Objects - Dynamic Site
NEODyS ∴ Observatories ∴ Site 691 ∴ Obs & residuals
Contact »
691  ▹ 
OBSERVATIONS AND RESIDUALS

691-Steward Observatory, Kitt Peak-Spacewatch

Detections | Residuals | Detections & Residuals

[1-200] [201-400] [401-600] [601-800] [801-1000] [1001-1200] [1201-1400] [1401-1600] [1601-1800] [1801-2000] [2001-2200] [2201-2400] [2401-2600] [2601-2800] [2801-3000] [3001-3200] [3201-3400] [3401-3600] [3601-3800] [3801-4000] [4001-4200] [4201-4400] [4401-4600] [4601-4800] [4801-5000] [5001-5200] [5201-5400] [5401-5600] [5601-5800] [5801-6000] [6001-6200] [6201-6400] [6401-6600] [6601-6800] [6801-7000] [7001-7200] [7201-7400] [7401-7600] [7601-7800] [7801-8000] [8001-8200] [8201-8400] [8401-8600] [8601-8800] [8801-9000] [9001-9200] [9201-9400] [9401-9600] [9601-9800] [9801-10000] [10001-10200] [10201-10400] [10401-10600] [10601-10800] [10801-11000] [11001-11200] [11201-11400] [11401-11600] [11601-11800] [11801-12000] [12001-12200] [12201-12400] [12401-12600] [12601-12800] [12801-13000] [13001-13200] [13201-13400] [13401-13600] [13601-13800] [13801-14000] [14001-14200] [14201-14400] [14401-14600] [14601-14800] [14801-15000] [15001-15200] [15201-15400] [15401-15600] [15601-15800] [15801-16000] [16001-16200] [16201-16400] [16401-16600] [16601-16800] [16801-17000] [17001-17200] [17201-17400] [17401-17600] [17601-17800] [17801-18000] [18001-18200] [18201-18400] [18401-18600] [18601-18800] [18801-19000] [19001-19200] [19201-19400] [19401-19600] [19601-19800] [19801-20000] [20001-20200] [20201-20400] [20401-20600] [20601-20800] [20801-21000] [21001-21200] [21201-21400] [21401-21600] [21601-21800] [21801-22000] [22001-22200] [22201-22400] [22401-22600] [22601-22800] [22801-23000] [23001-23200] [23201-23400] [23401-23600] [23601-23800] [23801-24000] [24001-24200] [24201-24400] [24401-24600] [24601-24800] [24801-25000] [25001-25200] [25201-25400] [25401-25600] [25601-25800] [25801-26000] [26001-26200] [26201-26400] [26401-26600] [26601-26800] [26801-27000] [27001-27200] [27201-27400] [27401-27600] [27601-27800] [27801-28000] [28001-28200] [28201-28400] [28401-28600] [28601-28800] [28801-29000] [29001-29200] [29201-29400] [29401-29600] [29601-29800] [29801-30000] [30001-30200] [30201-30400] [30401-30600] [30601-30800] [30801-31000] [31001-31200] [31201-31400] [31401-31600] [31601-31800] [31801-32000] [32001-32200] [32201-32400] [32401-32600] [32601-32800] [32801-33000] [33001-33200] [33201-33400] [33401-33600] [33601-33800] [33801-34000] [34001-34200] [34201-34400] [34401-34600] [34601-34800] [34801-35000] [35001-35200] [35201-35400] [35401-35600] [35601-35800] [35801-36000] [36001-36200] [36201-36400] [36401-36600] [36601-36800] [36801-37000] [37001-37200] [37201-37400] [37401-37600] [37601-37800] [37801-38000] [38001-38200] [38201-38400] [38401-38600] [38601-38800] [38801-39000] [39001-39200] [39201-39400] [39401-39600] [39601-39800] [39801-40000] [40001-40200] [40201-40400] [40401-40600] [40601-40800] [40801-41000] [41001-41200] [41201-41400] [41401-41600] [41601-41800] [41801-42000] [42001-42200] [42201-42400] [42401-42600] [42601-42800] [42801-43000] [43001-43200] [43201-43400] [43401-43600] [43601-43800] [43801-44000] [44001-44200] [44201-44400] [44401-44600] [44601-44800] [44801-45000] [45001-45200] [45201-45400] [45401-45600] [45601-45800] [45801-46000] [46001-46200] [46201-46400] [46401-46600] [46601-46800] [46801-47000] [47001-47200] [47201-47400] [47401-47600] [47601-47800] [47801-48000] [48001-48200] [48201-48400] [48401-48600] [48601-48800] [48801-49000] [49001-49200] [49201-49400] [49401-49600] [49601-49800] [49801-50000] [50001-50200] [50201-50388]

Designation T Tech N Date Right Ascension Declination Apparent Magnitude Star Catalog Site code χ Used A Used M
yr-mo-day precision hr:min:sec precision rms F bias residual deg min sec precision rms F bias residual mag/col rms residual
2003UB10 O C 2003-10-20.41165 1.000E-05 01:56:51.950 1.500E-01 0.500 F -0.148 -0.228 +01° 25' 43.00" 1.000E-01 0.500 F 0.392 -0.093 20.4 V 0.70 0.11 c 691 0.50 Yes Yes
2003UC10 O C 2003-10-20.41430 1.000E-05 01:53:57.440 1.500E-01 0.500 F -0.176 0.306 +02° 05' 43.80" 1.000E-01 0.500 F 0.283 -0.136 20.4 V 0.70 0.10 c 691 0.75 Yes Yes
2000XG47 O C 2003-10-20.43121 1.000E-05 03:47:22.310 1.500E-01 0.500 F -0.047 -0.064 +20° 55' 00.00" 1.000E-01 0.500 F 0.294 -0.029 20.2 V 0.70 0.57 c 691 0.14 Yes Yes
2000XG47 O C 2003-10-20.46043 1.000E-05 03:47:20.410 1.500E-01 0.500 F -0.047 0.090 +20° 55' 13.90" 1.000E-01 0.500 F 0.294 0.011 20.1 V 0.70 0.47 c 691 0.18 Yes Yes
2000XG47 O C 2003-10-20.48830 1.000E-05 03:47:18.590 1.500E-01 0.500 F -0.047 0.085 +20° 55' 27.10" 1.000E-01 0.500 F 0.294 0.047 20.2 V 0.70 0.57 c 691 0.20 Yes Yes
2003QQ10 O C 2003-10-21.10233 1.000E-05 23:40:40.020 1.500E-01 0.500 F -0.030 0.146 +13° 19' 09.70" 1.000E-01 0.500 F 0.492 -0.320 19.3 V 0.70 0.17 c 691 0.71 Yes Yes
2003QQ10 O C 2003-10-21.12903 1.000E-05 23:40:41.110 1.500E-01 0.500 F -0.030 0.242 +13° 19' 29.40" 1.000E-01 0.500 F 0.492 -0.163 19.5 V 0.70 0.37 c 691 0.59 Yes Yes
2003QQ10 O C 2003-10-21.15563 1.000E-05 23:40:42.170 1.500E-01 0.500 F -0.030 0.214 +13° 19' 48.80" 1.000E-01 0.500 F 0.492 -0.111 19.3 V 0.70 0.17 c 691 0.49 Yes Yes
1993HO1 O C 2003-10-21.16987 1.000E-05 02:30:48.480 1.500E-01 0.500 F -0.201 -0.115 +17° 30' 33.30" 1.000E-01 0.500 F 0.397 0.068 17.6 V 0.70 0.05 c 691 0.27 Yes Yes
2003UN12 O C 2003-10-21.18023 1.000E-05 02:33:11.220 1.500E-01 0.500 F 0.025 -0.495 +13° 00' 58.30" 1.000E-01 0.500 F 0.552 -0.358 20.9 V 0.70 0.87 c 691 1.24 Yes Yes
1993HO1 O C 2003-10-21.19625 1.000E-05 02:30:46.480 1.500E-01 0.500 F -0.201 -0.111 +17° 30' 36.80" 1.000E-01 0.500 F 0.397 0.062 17.6 V 0.70 0.06 c 691 0.26 Yes Yes
2003UN12 O C 2003-10-21.20719 1.000E-05 02:33:08.830 1.500E-01 0.500 F 0.025 0.187 +13° 00' 57.50" 1.000E-01 0.500 F 0.552 0.187 20.8 V 0.70 0.77 c 691 0.53 Yes Yes
1993HO1 O C 2003-10-21.22312 1.000E-05 02:30:44.440 1.500E-01 0.500 F -0.201 0.103 +17° 30' 40.30" 1.000E-01 0.500 F 0.397 0.054 17.6 V 0.70 0.06 c 691 0.23 Yes Yes
2003UN12 O C 2003-10-21.23358 1.000E-05 02:33:06.430 1.500E-01 0.500 F 0.025 0.142 +13° 00' 55.80" 1.000E-01 0.500 F 0.552 -0.158 20.7 V 0.70 0.68 c 691 0.43 Yes Yes
1998NU O C 2003-10-22.20149 1.000E-05 00:48:01.720 1.500E-01 0.500 F -0.024 -0.038 +09° 47' 57.80" 1.000E-01 0.500 F 0.313 -0.183 20.6 V 0.70 0.58 c 691 0.37 Yes Yes
1998NU O C 2003-10-22.22791 1.000E-05 00:48:00.070 1.500E-01 0.500 F -0.024 0.123 +09° 47' 47.30" 1.000E-01 0.500 F 0.313 -0.246 20.2 V 0.70 0.18 c 691 0.55 Yes Yes
1998NU O C 2003-10-22.25753 1.000E-05 00:47:58.200 1.500E-01 0.500 F -0.024 0.024 +09° 47' 35.50" 1.000E-01 0.500 F 0.313 -0.323 20.5 V 0.70 0.47 c 691 0.65 Yes Yes
2003TH2 O C 2003-10-22.27185 1.000E-05 02:18:54.290 1.500E-01 0.500 F -0.190 0.569 +05° 00' 11.20" 1.000E-01 0.500 F 0.420 -0.227 17.5 V 0.70 -0.11 c 691 1.24 Yes Yes
2003TH2 O C 2003-10-22.30006 1.000E-05 02:19:08.160 1.500E-01 0.500 F -0.190 0.035 +05° 00' 17.90" 1.000E-01 0.500 F 0.420 -0.202 17.5 V 0.70 -0.10 c 691 0.41 Yes Yes
2003TH2 O C 2003-10-22.32717 1.000E-05 02:19:21.590 1.500E-01 0.500 F -0.190 0.046 +05° 00' 24.10" 1.000E-01 0.500 F 0.420 -0.161 17.5 V 0.70 -0.10 c 691 0.34 Yes Yes
2000SO10 O C 2003-10-23.09123 1.000E-05 23:03:06.540 1.500E-01 0.500 F 0.206 0.083 +13° 38' 38.70" 1.000E-01 0.500 F 0.429 -0.323 20.6 V 0.70 0.39 c 691 0.67 Yes Yes
2000SO10 O C 2003-10-23.11798 1.000E-05 23:03:03.980 1.500E-01 0.500 F 0.206 0.033 +13° 38' 33.60" 1.000E-01 0.500 F 0.429 -0.237 20.5 V 0.70 0.29 c 691 0.48 Yes Yes
2000SO10 O C 2003-10-23.14459 1.000E-05 23:03:01.460 1.500E-01 0.500 F 0.206 0.408 +13° 38' 28.30" 1.000E-01 0.500 F 0.429 -0.338 20.7 V 0.70 0.49 c 691 1.06 Yes Yes
2003SL5 O C 2003-10-23.25073 1.000E-05 01:20:16.550 1.500E-01 0.500 F -0.075 -0.051 +03° 03' 40.30" 1.000E-01 0.500 F 0.461 -0.003 18.9 V 0.70 0.55 c 691 0.10 Yes Yes
1989UQ O C 2003-10-23.25073 1.000E-05 01:24:21.310 1.500E-01 0.500 F -0.172 -0.271 +03° 33' 52.00" 1.000E-01 0.500 F 0.387 -0.417 16.2 V 0.70 -0.01 c 691 1.00 Yes Yes
2003SL5 O C 2003-10-23.27781 1.000E-05 01:20:15.100 1.500E-01 0.500 F -0.075 -0.036 +03° 04' 05.60" 1.000E-01 0.500 F 0.461 -0.098 18.9 V 0.70 0.55 c 691 0.21 Yes Yes
1989UQ O C 2003-10-23.27781 1.000E-05 01:24:13.000 1.500E-01 0.500 F -0.172 -0.145 +03° 32' 54.40" 1.000E-01 0.500 F 0.387 -0.403 16.3 V 0.70 0.08 c 691 0.86 Yes Yes
2003SL5 O C 2003-10-23.30453 1.000E-05 01:20:13.670 1.500E-01 0.500 F -0.075 -0.036 +03° 04' 30.70" 1.000E-01 0.500 F 0.461 -0.011 18.9 V 0.70 0.55 c 691 0.08 Yes Yes
1989UQ O C 2003-10-23.30453 1.000E-05 01:24:04.820 1.500E-01 0.500 F -0.200 0.329 +03° 31' 57.60" 1.000E-01 0.500 F 0.342 -0.226 16.3 V 0.70 0.08 c 691 0.80 Yes Yes
2003RS1 O C 2003-10-23.33878 1.000E-05 02:43:15.640 1.500E-01 0.500 F -0.205 -0.052 +08° 25' 00.60" 1.000E-01 0.500 F 0.208 0.068 20.1 V 0.70 0.10 c 691 0.17 Yes Yes
2003RS1 O C 2003-10-23.36544 1.000E-05 02:43:14.690 1.500E-01 0.500 F -0.205 0.070 +08° 24' 57.80" 1.000E-01 0.500 F 0.208 -0.018 20.2 V 0.70 0.19 c 691 0.15 Yes Yes
2003RS1 O C 2003-10-23.39276 1.000E-05 02:43:13.690 1.500E-01 0.500 F -0.205 -0.347 +08° 24' 55.00" 1.000E-01 0.500 F 0.208 0.074 20.3 V 0.70 0.29 c 691 0.72 Yes Yes
2003WQ7 O C 2003-10-23.43449 1.000E-05 03:18:32.530 1.500E-01 0.500 F -0.093 0.038 +17° 26' 26.00" 1.000E-01 0.500 F 0.265 -0.453 20.9 V 0.70 0.61 c 691 0.91 Yes Yes
2003WQ7 O C 2003-10-23.46212 1.000E-05 03:18:30.170 1.500E-01 0.500 F -0.093 0.014 +17° 26' 56.10" 1.000E-01 0.500 F 0.265 -0.298 20.8 V 0.70 0.51 c 691 0.60 Yes Yes
2003WQ7 O C 2003-10-23.48955 1.000E-05 03:18:27.830 1.500E-01 0.500 F -0.093 -0.137 +17° 27' 26.00" 1.000E-01 0.500 F 0.265 -0.055 20.7 V 0.70 0.41 c 691 0.30 Yes Yes
2003UQ25 O C 2003-10-24.35012 1.000E-05 02:50:13.600 1.500E-01 0.500 F -0.132 0.252 +08° 34' 36.50" 1.000E-01 0.500 F 0.371 -0.016 21.4 V 0.70 0.57 c 691 0.53 Yes Yes
2003UQ25 O C 2003-10-24.37798 1.000E-05 02:50:20.920 1.500E-01 0.500 F -0.132 0.355 +08° 33' 56.90" 1.000E-01 0.500 F 0.371 -0.078 21.3 V 0.70 0.48 c 691 0.76 Yes Yes
2003UQ25 O C 2003-10-24.40575 1.000E-05 02:50:28.290 1.500E-01 0.500 F -0.132 0.743 +08° 33' 17.10" 1.000E-01 0.500 F 0.371 -0.063 21.4 V 0.70 0.58 c 691 1.57 Yes Yes
2003YQ94 O C 2003-10-24.43348 1.000E-05 08:27:55.980 1.500E-01 0.500 F 0.160 0.250 +20° 41' 05.70" 1.000E-01 0.500 F 0.401 -0.374 21.3 V 0.70 0.65 c 691 0.90 Yes Yes
2003YQ94 O C 2003-10-24.46079 1.000E-05 08:27:57.700 1.500E-01 0.500 F 0.160 0.345 +20° 40' 51.70" 1.000E-01 0.500 F 0.401 -0.199 20.9 V 0.70 0.25 c 691 0.80 Yes Yes
2003YQ94 O C 2003-10-24.48840 1.000E-05 08:27:59.420 1.500E-01 0.500 F 0.160 0.316 +20° 40' 37.30" 1.000E-01 0.500 F 0.401 -0.224 21.5 V 0.70 0.84 c 691 0.78 Yes Yes
2002KH4 O C 2003-10-25.31382 1.000E-05 03:10:41.790 1.500E-01 0.500 F -0.101 0.080 +26° 59' 50.70" 1.000E-01 0.500 F 0.343 -0.066 22.3 V 0.70 1.82 c 691 0.21 Yes Yes
2006SK198 O C 2003-10-25.31651 1.000E-05 03:04:35.680 1.500E-01 0.500 F -0.109 -0.334 +26° 08' 08.00" 1.000E-01 0.500 F 0.261 -0.057 20.7 V 0.70 0.22 c 691 0.68 Yes Yes
2002KH4 O C 2003-10-25.34402 1.000E-05 03:10:39.580 1.500E-01 0.500 F -0.101 -0.081 +26° 59' 28.10" 1.000E-01 0.500 F 0.343 -0.204 21.3 V 0.70 0.82 c 691 0.44 Yes Yes
2006SK198 O C 2003-10-25.34669 1.000E-05 03:04:33.500 1.500E-01 0.500 F -0.109 -0.111 +26° 07' 57.70" 1.000E-01 0.500 F 0.261 -0.258 20.6 V 0.70 0.12 c 691 0.56 Yes Yes
2002KH4 O C 2003-10-25.37218 1.000E-05 03:10:37.530 1.500E-01 0.500 F -0.101 -0.076 +26° 59' 07.50" 1.000E-01 0.500 F 0.343 0.198 21.4 V 0.70 0.92 c 691 0.43 Yes Yes
2006SK198 O C 2003-10-25.37503 1.000E-05 03:04:31.460 1.500E-01 0.500 F -0.109 0.201 +26° 07' 48.20" 1.000E-01 0.500 F 0.261 -0.207 20.9 V 0.70 0.42 c 691 0.58 Yes Yes
2003TT9 O C 2003-10-27.10624 1.000E-05 23:54:03.070 1.500E-01 0.500 F -0.062 -0.716 +20° 29' 43.60" 1.000E-01 0.500 F 0.229 0.443 21.5 V 0.70 0.86 c 691 1.88 Yes Yes
2003TT9 O C 2003-10-27.13601 1.000E-05 23:53:58.190 1.500E-01 0.500 F -0.062 -0.087 +20° 30' 55.30" 1.000E-01 0.500 F 0.229 -0.103 21.0 V 0.70 0.35 c 691 0.30 Yes Yes
2003TT9 O C 2003-10-27.16316 1.000E-05 23:53:53.700 1.500E-01 0.500 F -0.062 0.302 +20° 32' 00.80" 1.000E-01 0.500 F 0.229 0.056 21.1 V 0.70 0.45 c 691 0.68 Yes Yes
2003KR18 O C 2003-10-27.20194 1.000E-05 01:07:35.520 1.500E-01 0.500 F -0.115 0.036 +18° 10' 55.00" 1.000E-01 0.500 F 0.422 -0.190 17.8 V 0.70 0.22 c 691 0.39 Yes Yes
2003KR18 O C 2003-10-27.22920 1.000E-05 01:07:35.740 1.500E-01 0.500 F -0.115 0.236 +18° 10' 28.80" 1.000E-01 0.500 F 0.422 0.091 17.8 V 0.70 0.22 c 691 0.51 Yes Yes
2003KR18 O C 2003-10-27.25656 1.000E-05 01:07:35.930 1.500E-01 0.500 F -0.115 0.076 +18° 10' 01.90" 1.000E-01 0.500 F 0.422 -0.096 17.8 V 0.70 0.22 c 691 0.25 Yes Yes
2003UE O C 2003-10-27.31598 1.000E-05 01:59:49.770 1.500E-01 0.500 F -0.128 -0.118 +17° 06' 34.10" 1.000E-01 0.500 F 0.439 -0.058 19.1 V 0.70 0.18 c 691 0.27 Yes Yes
2003UE O C 2003-10-27.34916 1.000E-05 01:59:50.600 1.500E-01 0.500 F -0.128 -0.044 +17° 04' 24.30" 1.000E-01 0.500 F 0.439 -0.097 19.1 V 0.70 0.18 c 691 0.22 Yes Yes
2003UE O C 2003-10-27.37628 1.000E-05 01:59:51.290 1.500E-01 0.500 F -0.128 -0.027 +17° 02' 37.90" 1.000E-01 0.500 F 0.439 -0.195 19.4 V 0.70 0.48 c 691 0.40 Yes Yes
2001CL42 O C 2003-10-29.14630 1.000E-05 23:31:35.170 1.500E-01 0.500 F 0.122 -0.033 +10° 22' 26.10" 1.000E-01 0.500 F 0.424 -0.054 18.2 V 0.70 0.61 c 691 0.13 Yes Yes
Heracles O C 2003-10-29.14904 1.000E-05 23:40:02.270 1.500E-01 0.500 F 0.016 0.089 +10° 07' 15.10" 1.000E-01 0.500 F 0.208 0.142 18.7 V 0.70 0.09 c 691 0.33 Yes Yes
2001CL42 O C 2003-10-29.17494 1.000E-05 23:31:34.340 1.500E-01 0.500 F 0.122 -0.199 +10° 23' 02.90" 1.000E-01 0.500 F 0.424 -0.155 18.0 V 0.70 0.41 c 691 0.51 Yes Yes
Heracles O C 2003-10-29.17766 1.000E-05 23:40:00.620 1.500E-01 0.500 F 0.016 0.075 +10° 07' 00.80" 1.000E-01 0.500 F 0.208 0.105 18.7 V 0.70 0.09 c 691 0.26 Yes Yes
2001CL42 O C 2003-10-29.20248 1.000E-05 23:31:33.570 1.500E-01 0.500 F 0.122 0.039 +10° 23' 38.00" 1.000E-01 0.500 F 0.424 -0.418 18.0 V 0.70 0.41 c 691 0.84 Yes Yes
Heracles O C 2003-10-29.20529 1.000E-05 23:39:59.030 1.500E-01 0.500 F 0.016 0.099 +10° 06' 47.00" 1.000E-01 0.500 F 0.208 0.091 18.7 V 0.70 0.09 c 691 0.27 Yes Yes
2001XE1 O C 2003-11-15.36513 1.000E-05 03:31:16.400 1.500E-01 0.500 F -0.285 -0.117 +16° 46' 23.80" 1.000E-01 0.500 F 0.299 0.269 19.9 V 0.70 0.80 c 691 0.60 Yes Yes
2001XE1 O C 2003-11-15.39375 1.000E-05 03:31:13.980 1.500E-01 0.500 F -0.285 0.032 +16° 45' 19.40" 1.000E-01 0.500 F 0.299 0.113 19.8 V 0.70 0.70 c 691 0.24 Yes Yes
2001XE1 O C 2003-11-15.42392 1.000E-05 03:31:11.410 1.500E-01 0.500 F -0.285 -0.326 +16° 44' 11.30" 1.000E-01 0.500 F 0.299 -0.125 20.0 V 0.70 0.90 c 691 0.71 Yes Yes
2003TK2 O C 2003-11-18.15952 1.000E-05 03:28:04.750 1.500E-01 0.500 F -0.086 -0.010 +30° 47' 19.00" 1.000E-01 0.500 F 0.311 0.104 19.3 V 0.70 0.13 c 691 0.21 Yes Yes
2003TK2 O C 2003-11-18.18746 1.000E-05 03:28:01.250 1.500E-01 0.500 F -0.086 0.044 +30° 46' 59.10" 1.000E-01 0.500 F 0.311 0.235 19.2 V 0.70 0.03 c 691 0.49 Yes Yes
2003TK2 O C 2003-11-18.22050 1.000E-05 03:27:57.070 1.500E-01 0.500 F -0.086 -0.071 +30° 46' 35.00" 1.000E-01 0.500 F 0.311 0.093 19.2 V 0.70 0.02 c 691 0.24 Yes Yes
2003WO7 O C 2003-11-18.42967 1.000E-05 05:20:02.070 1.500E-01 0.500 F -0.056 0.482 +15° 56' 08.70" 1.000E-01 0.500 F 0.096 -0.237 20.7 V 0.70 0.34 c 691 1.09 Yes Yes
2003WO7 O C 2003-11-18.45760 1.000E-05 05:19:59.560 1.500E-01 0.500 F -0.056 0.380 +15° 56' 16.60" 1.000E-01 0.500 F 0.096 -0.359 21.2 V 0.70 0.84 c 691 1.06 Yes Yes
2003WO7 O C 2003-11-18.48625 1.000E-05 05:19:57.070 1.500E-01 0.500 F -0.056 1.364 +15° 56' 25.60" 1.000E-01 0.500 F 0.096 0.483 21.4 V 0.70 1.04 c 691 2.94 Yes Yes
2003WP7 O C 2003-11-19.16913 1.000E-05 03:59:04.920 1.500E-01 0.500 F 0.157 0.042 +22° 55' 34.70" 1.000E-01 0.500 F 0.081 -0.332 20.5 V 0.70 0.79 c 691 0.69 Yes Yes
2003QF70 O C 2003-11-19.17765 1.000E-05 04:00:21.140 1.500E-01 0.500 F 0.037 0.077 +21° 11' 55.60" 1.000E-01 0.500 F -0.074 -0.095 18.5 V 0.70 0.43 c 691 0.25 Yes Yes
1999HE1 O C 2003-11-19.18078 1.000E-05 03:54:09.690 1.500E-01 0.500 F 0.042 -0.062 +18° 34' 52.70" 1.000E-01 0.500 F 0.296 -0.106 21.7 V 0.70 0.85 c 691 0.25 Yes Yes
2003WP7 O C 2003-11-19.19719 1.000E-05 03:59:08.240 1.500E-01 0.500 F 0.157 0.290 +22° 55' 49.20" 1.000E-01 0.500 F 0.081 -0.202 20.6 V 0.70 0.90 c 691 0.73 Yes Yes
2003QF70 O C 2003-11-19.20547 1.000E-05 04:00:21.030 1.500E-01 0.500 F 0.037 -0.513 +21° 11' 19.20" 1.000E-01 0.500 F -0.074 -0.640 18.3 V 0.70 0.23 c 691 1.67 Yes Yes
1999HE1 O C 2003-11-19.20822 1.000E-05 03:54:07.290 1.500E-01 0.500 F 0.042 -0.223 +18° 34' 50.50" 1.000E-01 0.500 F 0.296 -0.052 21.2 V 0.70 0.35 c 691 0.46 Yes Yes
2003WP7 O C 2003-11-19.22463 1.000E-05 03:59:11.380 1.500E-01 0.500 F 0.157 0.045 +22° 56' 02.60" 1.000E-01 0.500 F 0.081 -0.411 20.8 V 0.70 1.10 c 691 0.85 Yes Yes
2003QF70 O C 2003-11-19.23269 1.000E-05 04:00:20.970 1.500E-01 0.500 F 0.037 0.052 +21° 10' 44.60" 1.000E-01 0.500 F -0.074 0.021 18.5 V 0.70 0.43 c 691 0.11 Yes Yes
1999HE1 O C 2003-11-19.23541 1.000E-05 03:54:04.930 1.500E-01 0.500 F 0.042 -0.043 +18° 34' 48.50" 1.000E-01 0.500 F 0.296 0.217 21.6 V 0.70 0.75 c 691 0.44 Yes Yes
2003WH166 O C H 2003-11-19.26262 1.000E-05 04:06:13.090 1.500E-01 0.500 F -0.030 0.567 +19° 03' 45.20" 1.000E-01 0.500 F 0.332 -0.242 c 691 1.24 Yes No
2003SV222 O C 2003-11-19.26848 1.000E-05 04:10:56.890 1.500E-01 0.500 F -0.022 -0.032 +16° 52' 51.60" 1.000E-01 0.500 F 0.215 -0.222 18.8 V 0.70 0.12 c 691 0.45 Yes Yes
2003WH166 O C H 2003-11-19.29112 1.000E-05 04:06:10.390 1.500E-01 0.500 F -0.030 0.335 +19° 03' 34.00" 1.000E-01 0.500 F 0.332 -0.772 c 691 1.69 Yes No
2003SV222 O C 2003-11-19.29650 1.000E-05 04:10:53.810 1.500E-01 0.500 F -0.022 -0.093 +16° 52' 12.20" 1.000E-01 0.500 F 0.215 -0.181 18.8 V 0.70 0.12 c 691 0.41 Yes Yes
2003WH166 O C H 2003-11-19.31837 1.000E-05 04:06:07.810 1.500E-01 0.500 F -0.030 0.281 +19° 03' 23.50" 1.000E-01 0.500 F 0.332 -0.889 c 691 1.87 Yes No
2003SV222 O C 2003-11-19.32368 1.000E-05 04:10:50.820 1.500E-01 0.500 F -0.022 -0.145 +16° 51' 33.90" 1.000E-01 0.500 F 0.215 -0.148 18.9 V 0.70 0.22 c 691 0.42 Yes Yes
2003OR14 O C 2003-11-20.08214 1.000E-05 21:41:14.100 1.500E-01 0.500 F 0.106 -0.072 -06° 18' 19.10" 1.000E-01 0.500 F 0.396 -0.040 20.1 V 0.70 0.65 c 691 0.17 Yes Yes
2003OR14 O C 2003-11-20.10420 1.000E-05 21:41:16.700 1.500E-01 0.500 F 0.106 0.087 -06° 18' 22.90" 1.000E-01 0.500 F 0.396 -0.358 20.1 V 0.70 0.65 c 691 0.74 Yes Yes
2003OR14 O C 2003-11-20.13028 1.000E-05 21:41:19.750 1.500E-01 0.500 F 0.106 -0.151 -06° 18' 26.90" 1.000E-01 0.500 F 0.396 -0.268 20.2 V 0.70 0.75 c 691 0.62 Yes Yes
2001VG75 O C 2003-11-20.24261 1.000E-05 03:36:12.110 1.500E-01 0.500 F -0.040 -0.024 +30° 20' 38.10" 1.000E-01 0.500 F 0.286 0.023 17.8 V 0.70 0.59 c 691 0.07 Yes Yes
Pan O C 2003-11-20.25049 1.000E-05 03:45:41.640 1.500E-01 0.500 F 0.039 -0.315 +29° 23' 28.00" 1.000E-01 0.500 F 0.288 -0.058 20.0 V 0.70 0.11 c 691 0.64 Yes Yes
2001VG75 O C 2003-11-20.26962 1.000E-05 03:36:09.370 1.500E-01 0.500 F -0.040 -0.092 +30° 19' 19.10" 1.000E-01 0.500 F 0.286 -0.116 17.9 V 0.70 0.69 c 691 0.30 Yes Yes
Pan O C 2003-11-20.27747 1.000E-05 03:45:38.380 1.500E-01 0.500 F 0.039 -0.017 +29° 23' 17.80" 1.000E-01 0.500 F 0.288 -0.055 20.0 V 0.70 0.11 c 691 0.12 Yes Yes
2001VG75 O C 2003-11-20.29748 1.000E-05 03:36:06.550 1.500E-01 0.500 F -0.040 0.031 +30° 17' 57.40" 1.000E-01 0.500 F 0.286 -0.089 17.8 V 0.70 0.59 c 691 0.19 Yes Yes
Pan O C 2003-11-20.30551 1.000E-05 03:45:34.980 1.500E-01 0.500 F 0.039 0.163 +29° 23' 07.00" 1.000E-01 0.500 F 0.288 -0.156 20.0 V 0.70 0.11 c 691 0.45 Yes Yes
1998YQ11 O C 2003-11-20.32541 1.000E-05 03:53:07.360 1.500E-01 0.500 F 0.032 -0.002 +30° 55' 47.10" 1.000E-01 0.500 F 0.338 -0.108 17.6 V 0.70 0.20 c 691 0.22 Yes Yes
1998YQ11 O C 2003-11-20.35578 1.000E-05 03:53:04.810 1.500E-01 0.500 F 0.032 -0.197 +30° 55' 15.20" 1.000E-01 0.500 F 0.338 -0.105 17.5 V 0.70 0.11 c 691 0.45 Yes Yes
1998YQ11 O C 2003-11-20.38270 1.000E-05 03:53:02.580 1.500E-01 0.500 F 0.032 -0.085 +30° 54' 46.70" 1.000E-01 0.500 F 0.338 -0.079 17.5 V 0.70 0.11 c 691 0.23 Yes Yes
2003WP25 O C 2003-11-21.16154 1.000E-05 02:38:14.970 1.500E-01 0.500 F -0.103 -0.292 +22° 23' 24.30" 1.000E-01 0.500 F 0.325 0.008 20.6 V 0.70 0.33 c 691 0.60 Yes Yes
2002KH4 O C 2003-11-21.16686 1.000E-05 02:38:13.850 1.500E-01 0.500 F -0.448 0.079 +20° 37' 25.30" 1.000E-01 0.500 F 0.342 -0.068 21.1 V 0.70 0.74 c 691 0.21 Yes Yes
2003WP25 O C 2003-11-21.18840 1.000E-05 02:38:08.660 1.500E-01 0.500 F -0.103 0.151 +22° 23' 25.70" 1.000E-01 0.500 F 0.325 -0.086 20.6 V 0.70 0.33 c 691 0.35 Yes Yes
2002KH4 O C 2003-11-21.19369 1.000E-05 02:38:12.030 1.500E-01 0.500 F -0.448 0.037 +20° 37' 01.20" 1.000E-01 0.500 F 0.342 -0.042 21.0 V 0.70 0.64 c 691 0.11 Yes Yes
2003WP25 O C 2003-11-21.21497 1.000E-05 02:38:02.310 1.500E-01 0.500 F -0.103 -0.222 +22° 23' 26.60" 1.000E-01 0.500 F 0.325 0.060 20.6 V 0.70 0.32 c 691 0.47 Yes Yes
2002KH4 O C 2003-11-21.22021 1.000E-05 02:38:10.240 1.500E-01 0.500 F -0.448 0.146 +20° 36' 37.20" 1.000E-01 0.500 F 0.342 -0.166 21.2 V 0.70 0.84 c 691 0.44 Yes Yes
2001AE2 O C 2003-11-21.24751 1.000E-05 02:24:13.760 1.500E-01 0.500 F -0.011 -0.220 +09° 48' 40.50" 1.000E-01 0.500 F 0.239 -0.121 19.6 V 0.70 0.26 c 691 0.50 Yes Yes
2001AE2 O C 2003-11-21.27916 1.000E-05 02:24:11.030 1.500E-01 0.500 F -0.011 -0.172 +09° 48' 28.10" 1.000E-01 0.500 F 0.239 0.019 19.5 V 0.70 0.16 c 691 0.35 Yes Yes
2001AE2 O C 2003-11-21.30589 1.000E-05 02:24:08.730 1.500E-01 0.500 F -0.011 -0.182 +09° 48' 17.50" 1.000E-01 0.500 F 0.239 0.073 19.6 V 0.70 0.25 c 691 0.39 Yes Yes
2001XE1 O C 2003-11-21.31134 1.000E-05 03:23:19.030 1.500E-01 0.500 F 0.044 -0.064 +12° 59' 59.90" 1.000E-01 0.500 F 0.337 0.009 19.8 V 0.70 0.56 c 691 0.13 Yes Yes
2001XE1 O C 2003-11-21.33815 1.000E-05 03:23:16.750 1.500E-01 0.500 F 0.044 0.233 +12° 58' 57.80" 1.000E-01 0.500 F 0.337 0.120 19.8 V 0.70 0.55 c 691 0.53 Yes Yes
2001XE1 O C 2003-11-21.36471 1.000E-05 03:23:14.470 1.500E-01 0.500 F 0.044 0.084 +12° 57' 55.90" 1.000E-01 0.500 F 0.337 -0.064 19.8 V 0.70 0.55 c 691 0.21 Yes Yes
2003WU21 O C 2003-11-21.39752 1.000E-05 04:08:22.660 1.500E-01 0.500 F 0.104 0.435 +31° 16' 51.20" 1.000E-01 0.500 F 0.134 -0.868 17.7 V 0.70 0.33 c 691 1.98 Yes Yes
2003WU21 O C 2003-11-21.42429 1.000E-05 04:07:52.350 1.500E-01 0.500 F 0.104 0.030 +31° 22' 43.30" 1.000E-01 0.500 F 0.134 -0.683 c 691 1.40 Yes No
2003WU21 O C 2003-11-21.45156 1.000E-05 04:07:21.430 1.500E-01 0.500 F 0.070 0.097 +31° 28' 42.50" 1.000E-01 0.500 F 0.210 -0.097 c 691 0.28 Yes No
2002AC2 O C 2003-11-21.48553 1.000E-05 08:17:12.210 1.500E-01 0.500 F 0.132 0.074 +08° 29' 42.90" 1.000E-01 0.500 F 0.061 -0.024 20.3 V 0.70 0.21 c 691 0.15 Yes Yes
2002AC2 O C 2003-11-21.50113 1.000E-05 08:17:11.750 1.500E-01 0.500 F 0.132 0.121 +08° 29' 58.70" 1.000E-01 0.500 F 0.061 -0.132 20.0 V 0.70 -0.09 c 691 0.36 Yes Yes
2002AC2 O C 2003-11-21.51668 1.000E-05 08:17:11.270 1.500E-01 0.500 F 0.132 -0.145 +08° 30' 14.70" 1.000E-01 0.500 F 0.061 0.011 19.9 V 0.70 -0.19 c 691 0.29 Yes Yes
2000UR13 O C 2003-11-22.09116 1.000E-05 01:21:41.310 1.500E-01 0.500 F 0.048 0.084 +18° 18' 39.40" 1.000E-01 0.500 F 0.289 -0.226 21.2 V 0.70 0.97 c 691 0.48 Yes Yes
2003KR18 O C 2003-11-22.10755 1.000E-05 01:20:51.970 1.500E-01 0.500 F -0.014 -0.073 +13° 19' 21.00" 1.000E-01 0.500 F 0.422 0.013 19.1 V 0.70 0.05 c 691 0.15 Yes Yes
2000UR13 O C 2003-11-22.11870 1.000E-05 01:21:40.210 1.500E-01 0.500 F 0.048 0.039 +18° 18' 29.30" 1.000E-01 0.500 F 0.289 -0.216 21.0 V 0.70 0.77 c 691 0.44 Yes Yes
2003KR18 O C 2003-11-22.13668 1.000E-05 01:20:53.230 1.500E-01 0.500 F -0.014 0.116 +13° 19' 10.50" 1.000E-01 0.500 F 0.422 -0.005 19.3 V 0.70 0.25 c 691 0.23 Yes Yes
2000UR13 O C 2003-11-22.14870 1.000E-05 01:21:39.010 1.500E-01 0.500 F 0.048 0.008 +18° 18' 18.50" 1.000E-01 0.500 F 0.289 0.031 20.9 V 0.70 0.67 c 691 0.06 Yes Yes
2003KR18 O C 2003-11-22.16587 1.000E-05 01:20:54.470 1.500E-01 0.500 F -0.014 0.098 +13° 19' 00.00" 1.000E-01 0.500 F 0.422 0.059 19.2 V 0.70 0.15 c 691 0.23 Yes Yes
1990TG1 O C 2003-11-24.27449 1.000E-05 04:50:32.300 1.500E-01 0.500 F -0.070 0.097 +14° 11' 06.10" 1.000E-01 0.500 F 0.201 -0.114 20.5 V 0.70 0.13 c 691 0.30 Yes Yes
1990TG1 O C 2003-11-24.30278 1.000E-05 04:50:30.610 1.500E-01 0.500 F -0.070 -0.756 +14° 11' 01.60" 1.000E-01 0.500 F 0.201 0.247 20.4 V 0.70 0.03 c 691 1.59 Yes Yes
1990TG1 O C 2003-11-24.33274 1.000E-05 04:50:28.920 1.500E-01 0.500 F -0.070 -0.184 +14° 10' 55.90" 1.000E-01 0.500 F 0.201 -0.285 21.1 V 0.70 0.73 c 691 0.68 Yes Yes
2003SV222 O C 2003-11-26.21048 1.000E-05 03:59:16.170 1.500E-01 0.500 F -0.077 0.042 +14° 17' 10.20" 1.000E-01 0.500 F 0.232 -0.162 19.1 V 0.70 0.34 c 691 0.34 Yes Yes
2003QB90 O C 2003-11-26.22311 1.000E-05 03:58:46.440 1.500E-01 0.500 F -0.373 0.172 +09° 41' 25.30" 1.000E-01 0.500 F 0.111 -0.133 19.4 V 0.70 0.35 c 691 0.44 Yes Yes
1998FR11 O C 2003-11-26.22311 1.000E-05 03:56:33.150 1.500E-01 0.500 F -0.328 0.309 +10° 19' 50.00" 1.000E-01 0.500 F 0.177 0.160 20.0 V 0.70 0.12 c 691 0.70 Yes Yes
2003WO151 O C 2003-11-26.22589 1.000E-05 03:45:03.450 1.500E-01 0.500 F -0.117 0.661 +09° 16' 25.90" 1.000E-01 0.500 F 0.364 0.373 22.2 V 0.70 0.75 c 691 1.56 Yes Yes
2003SV222 O C 2003-11-26.23929 1.000E-05 03:59:13.320 1.500E-01 0.500 F -0.077 0.114 +14° 16' 34.00" 1.000E-01 0.500 F 0.232 -0.051 18.9 V 0.70 0.14 c 691 0.26 Yes Yes
2003QB90 O C 2003-11-26.24999 1.000E-05 03:58:44.340 1.500E-01 0.500 F -0.373 0.030 +09° 41' 29.00" 1.000E-01 0.500 F 0.111 -0.059 19.4 V 0.70 0.35 c 691 0.13 Yes Yes
1998FR11 O C 2003-11-26.24999 1.000E-05 03:56:30.940 1.500E-01 0.500 F -0.328 0.101 +10° 19' 46.60" 1.000E-01 0.500 F 0.177 -0.031 20.3 V 0.70 0.42 c 691 0.21 Yes Yes
2003WO151 O C 2003-11-26.25261 1.000E-05 03:44:59.120 1.500E-01 0.500 F -0.117 -0.887 +09° 15' 43.00" 1.000E-01 0.500 F 0.364 -0.181 22.3 V 0.70 0.85 c 691 1.86 Yes Yes
2003SV222 O C 2003-11-26.26636 1.000E-05 03:59:10.610 1.500E-01 0.500 F -0.077 -0.203 +14° 15' 59.70" 1.000E-01 0.500 F 0.232 -0.184 19.0 V 0.70 0.23 c 691 0.55 Yes Yes
2003QB90 O C 2003-11-26.27703 1.000E-05 03:58:42.240 1.500E-01 0.500 F -0.373 0.139 +09° 41' 32.50" 1.000E-01 0.500 F 0.111 -0.165 19.5 V 0.70 0.45 c 691 0.43 Yes Yes
1998FR11 O C 2003-11-26.27703 1.000E-05 03:56:28.730 1.500E-01 0.500 F -0.328 0.112 +10° 19' 43.40" 1.000E-01 0.500 F 0.177 0.015 20.3 V 0.70 0.42 c 691 0.23 Yes Yes
2003WO151 O C 2003-11-26.27988 1.000E-05 03:44:54.910 1.500E-01 0.500 F -0.117 0.713 +09° 15' 00.40" 1.000E-01 0.500 F 0.364 0.497 22.2 V 0.70 0.75 c 691 1.78 Yes Yes
2003WE157 O C 2003-11-29.35559 1.000E-05 02:54:53.500 1.500E-01 0.500 F -0.123 -0.160 +06° 54' 31.20" 1.000E-01 0.500 F 0.434 -0.284 20.6 V 0.70 0.35 c 691 0.69 Yes Yes
2003WE157 O C 2003-11-29.38300 1.000E-05 02:54:51.470 1.500E-01 0.500 F -0.123 0.208 +06° 53' 21.50" 1.000E-01 0.500 F 0.434 -0.086 20.4 V 0.70 0.15 c 691 0.48 Yes Yes
2003WE157 O C 2003-11-29.41367 1.000E-05 02:54:49.200 1.500E-01 0.500 F -0.123 -0.021 +06° 52' 03.00" 1.000E-01 0.500 F 0.434 -0.271 20.4 V 0.70 0.15 c 691 0.58 Yes Yes
2003WW26 O C 2003-11-30.06453 1.000E-05 02:17:15.680 1.500E-01 0.500 F -0.256 0.278 +16° 23' 47.60" 1.000E-01 0.500 F 0.435 0.036 21.1 V 0.70 0.63 c 691 0.60 Yes Yes
2003WW26 O C 2003-11-30.09173 1.000E-05 02:17:19.690 1.500E-01 0.500 F -0.256 -0.191 +16° 24' 33.90" 1.000E-01 0.500 F 0.435 -0.164 21.0 V 0.70 0.52 c 691 0.54 Yes Yes
2003WW26 O C 2003-11-30.11908 1.000E-05 02:17:23.670 1.500E-01 0.500 F -0.256 -0.551 +16° 25' 20.10" 1.000E-01 0.500 F 0.435 -0.350 21.3 V 0.70 0.82 c 691 1.39 Yes Yes
1999HE1 O C 2003-11-30.26191 1.000E-05 03:39:05.680 1.500E-01 0.500 F -0.195 0.165 +18° 18' 03.90" 1.000E-01 0.500 F 0.403 -0.189 21.8 V 0.70 0.63 c 691 0.50 Yes Yes
2003WH166 O C 2003-11-30.27027 1.000E-05 03:45:56.560 1.500E-01 0.500 F -0.070 0.030 +17° 33' 47.40" 1.000E-01 0.500 F 0.353 -0.268 21.5 V 0.70 0.76 c 691 0.54 Yes Yes
1999HE1 O C 2003-11-30.28947 1.000E-05 03:39:03.490 1.500E-01 0.500 F -0.195 -0.429 +18° 18' 01.40" 1.000E-01 0.500 F 0.403 -0.246 22.2 V 0.70 1.03 c 691 0.99 Yes Yes
2003WH166 O C 2003-11-30.29748 1.000E-05 03:45:52.630 1.500E-01 0.500 F -0.070 -0.478 +17° 33' 31.00" 1.000E-01 0.500 F 0.353 -0.148 21.2 V 0.70 0.46 c 691 1.02 Yes Yes
1999HE1 O C 2003-11-30.31743 1.000E-05 03:39:01.360 1.500E-01 0.500 F -0.195 0.245 +18° 17' 58.80" 1.000E-01 0.500 F 0.403 -0.324 21.7 V 0.70 0.53 c 691 0.81 Yes Yes
2003WH166 O C 2003-11-30.32550 1.000E-05 03:45:48.640 1.500E-01 0.500 F -0.070 -0.228 +17° 33' 13.80" 1.000E-01 0.500 F 0.353 -0.120 21.2 V 0.70 0.46 c 691 0.53 Yes Yes
2003SW222 O C 2003-11-30.46779 1.000E-05 10:30:25.370 1.500E-01 0.500 F 0.443 -0.276 +09° 06' 54.00" 1.000E-01 0.500 F 0.270 0.022 19.0 V 0.70 0.04 c 691 0.56 Yes Yes
2003SW222 O C 2003-11-30.48938 1.000E-05 10:30:27.860 1.500E-01 0.500 F 0.443 -0.058 +09° 06' 08.50" 1.000E-01 0.500 F 0.270 -0.241 19.5 V 0.70 0.54 c 691 0.50 Yes Yes
2003SW222 O C 2003-11-30.51105 1.000E-05 10:30:30.330 1.500E-01 0.500 F 0.443 -0.183 +09° 05' 23.30" 1.000E-01 0.500 F 0.270 -0.006 19.0 V 0.70 0.04 c 691 0.37 Yes Yes
2003XV O C 2003-12-01.15538 1.000E-05 03:12:58.930 1.500E-01 0.500 F 0.078 -0.112 +29° 49' 40.20" 1.000E-01 0.500 F 0.262 -0.061 20.8 V 0.70 0.20 c 691 0.26 Yes Yes
2003TK2 O C 2003-12-01.15813 1.000E-05 03:09:42.800 1.500E-01 0.500 F 0.070 0.116 +28° 19' 14.20" 1.000E-01 0.500 F 0.249 0.045 20.4 V 0.70 0.29 c 691 0.25 Yes Yes
2003XV O C 2003-12-01.18323 1.000E-05 03:13:01.680 1.500E-01 0.500 F 0.078 0.143 +29° 49' 12.20" 1.000E-01 0.500 F 0.262 -0.293 20.7 V 0.70 0.11 c 691 0.66 Yes Yes
2003TK2 O C 2003-12-01.18597 1.000E-05 03:09:41.170 1.500E-01 0.500 F 0.070 0.209 +28° 18' 58.20" 1.000E-01 0.500 F 0.249 -0.009 20.3 V 0.70 0.19 c 691 0.42 Yes Yes
2003XV O C 2003-12-01.21064 1.000E-05 03:13:04.220 1.500E-01 0.500 F 0.078 0.175 +29° 48' 41.90" 1.000E-01 0.500 F 0.262 -0.426 20.8 V 0.70 0.22 c 691 0.93 Yes Yes
2003TK2 O C 2003-12-01.21338 1.000E-05 03:09:39.560 1.500E-01 0.500 F 0.070 0.338 +28° 18' 42.30" 1.000E-01 0.500 F 0.249 -0.050 20.2 V 0.70 0.09 c 691 0.69 Yes Yes
Pan O C 2003-12-01.25626 1.000E-05 03:24:37.030 1.500E-01 0.500 F -0.164 0.023 +28° 01' 18.30" 1.000E-01 0.500 F 0.195 -0.036 20.2 V 0.70 0.15 c 691 0.09 Yes Yes
Pan O C 2003-12-01.28437 1.000E-05 03:24:33.920 1.500E-01 0.500 F -0.164 0.017 +28° 01' 04.30" 1.000E-01 0.500 F 0.195 0.036 20.3 V 0.70 0.24 c 691 0.08 Yes Yes
Pan O C 2003-12-01.31187 1.000E-05 03:24:30.880 1.500E-01 0.500 F -0.164 -0.002 +28° 00' 50.50" 1.000E-01 0.500 F 0.195 0.088 20.3 V 0.70 0.24 c 691 0.18 Yes Yes
2003UY19 O C 2003-12-01.43702 1.000E-05 06:54:25.400 1.500E-01 0.500 F 0.012 0.114 +34° 36' 39.00" 1.000E-01 0.500 F 0.343 -0.057 18.4 V 0.70 0.34 c 691 0.27 Yes Yes
2003UY19 O C 2003-12-01.44542 1.000E-05 06:54:24.390 1.500E-01 0.500 F 0.012 -0.055 +34° 36' 47.00" 1.000E-01 0.500 F 0.343 -0.014 18.5 V 0.70 0.44 c 691 0.12 Yes Yes
2003UY19 O C 2003-12-01.45381 1.000E-05 06:54:23.400 1.500E-01 0.500 F 0.012 -0.004 +34° 36' 54.80" 1.000E-01 0.500 F 0.343 -0.129 18.4 V 0.70 0.34 c 691 0.27 Yes Yes
2008JF O C 2003-12-16.27724 1.000E-05 04:36:11.770 1.500E-01 0.500 F -0.108 -0.050 +11° 35' 50.70" 1.000E-01 0.500 F 0.057 0.310 20.3 V 0.70 0.48 c 691 0.63 Yes Yes
2008JF O C 2003-12-16.30483 1.000E-05 04:36:09.170 1.500E-01 0.500 F -0.108 0.058 +11° 36' 16.20" 1.000E-01 0.500 F 0.057 0.102 20.2 V 0.70 0.38 c 691 0.25 Yes Yes
2008JF O C 2003-12-16.33371 1.000E-05 04:36:06.450 1.500E-01 0.500 F -0.108 0.101 +11° 36' 42.90" 1.000E-01 0.500 F 0.057 -0.050 20.4 V 0.70 0.58 c 691 0.24 Yes Yes
1998YQ11 O C 2003-12-18.08497 1.000E-05 03:18:51.860 1.500E-01 0.500 F 0.026 -0.049 +19° 05' 52.40" 1.000E-01 0.500 F 0.420 -0.017 17.3 V 0.70 0.01 c 691 0.10 Yes Yes
1998YQ11 O C 2003-12-18.11154 1.000E-05 03:18:50.420 1.500E-01 0.500 F 0.026 -0.703 +19° 05' 05.10" 1.000E-01 0.500 F 0.420 -0.060 17.2 V 0.70 -0.09 c 691 1.42 Yes Yes
1998YQ11 O C 2003-12-18.13842 1.000E-05 03:18:49.060 1.500E-01 0.500 F 0.026 0.255 +19° 04' 17.50" 1.000E-01 0.500 F 0.420 0.280 17.8 V 0.70 0.51 c 691 0.76 Yes Yes
2003YO1 O C 2003-12-18.17812 1.000E-05 03:49:49.360 1.500E-01 0.500 F -0.078 -0.054 +28° 52' 39.70" 1.000E-01 0.500 F 0.191 -0.129 20.0 V 0.70 0.27 c 691 0.28 Yes Yes
2003YO1 O C 2003-12-18.20534 1.000E-05 03:49:43.810 1.500E-01 0.500 F -0.078 -0.438 +28° 52' 51.10" 1.000E-01 0.500 F 0.191 -0.140 20.3 V 0.70 0.57 c 691 0.93 Yes Yes
2003YO1 O C 2003-12-18.23693 1.000E-05 03:49:37.420 1.500E-01 0.500 F -0.078 -0.176 +28° 53' 04.10" 1.000E-01 0.500 F 0.191 -0.111 20.1 V 0.70 0.37 c 691 0.42 Yes Yes
2003YW1 O C 2003-12-18.47336 1.000E-05 08:00:29.540 1.500E-01 0.500 F 0.144 0.238 +32° 00' 33.90" 1.000E-01 0.500 F 0.385 -0.170 21.1 V 0.70 0.45 c 691 0.60 Yes Yes
2001CP44 O C 2003-12-18.48691 1.000E-05 07:35:38.060 1.500E-01 0.500 F 0.187 -0.033 +25° 27' 40.60" 1.000E-01 0.500 F 0.385 -0.200 19.7 V 0.70 0.34 c 691 0.41 Yes Yes
2003YW1 O C 2003-12-18.50195 1.000E-05 08:00:27.640 1.500E-01 0.500 F 0.176 0.232 +31° 58' 02.30" 1.000E-01 0.500 F 0.263 -0.696 21.0 V 0.70 0.35 c 691 1.51 Yes Yes
2001CP44 O C 2003-12-18.51786 1.000E-05 07:35:36.490 1.500E-01 0.500 F 0.187 -0.029 +25° 27' 48.70" 1.000E-01 0.500 F 0.385 -0.123 19.6 V 0.70 0.25 c 691 0.25 Yes Yes
2003YW1 O C 2003-12-18.53174 1.000E-05 08:00:25.690 1.500E-01 0.500 F 0.176 -0.003 +31° 55' 24.10" 1.000E-01 0.500 F 0.263 -0.966 21.3 V 0.70 0.65 c 691 1.99 Yes Yes
2001CP44 O C 2003-12-18.54536 1.000E-05 07:35:35.090 1.500E-01 0.500 F 0.187 -0.143 +25° 27' 55.80" 1.000E-01 0.500 F 0.385 -0.128 19.8 V 0.70 0.45 c 691 0.39 Yes Yes
Pan O C 2003-12-19.09738 1.000E-05 02:58:23.290 1.500E-01 0.500 F -0.131 -0.028 +25° 28' 10.40" 1.000E-01 0.500 F 0.293 -0.161 21.1 V 0.70 0.52 c 691 0.33 Yes Yes
Pan O C 2003-12-19.12483 1.000E-05 02:58:21.430 1.500E-01 0.500 F -0.131 -0.097 +25° 27' 57.10" 1.000E-01 0.500 F 0.293 -0.163 21.4 V 0.70 0.82 c 691 0.38 Yes Yes
Pan O C 2003-12-19.15189 1.000E-05 02:58:19.610 1.500E-01 0.500 F -0.131 0.053 +25° 27' 44.00" 1.000E-01 0.500 F 0.293 -0.097 21.2 V 0.70 0.62 c 691 0.22 Yes Yes
2003WO7 O C 2003-12-19.31475 1.000E-05 04:34:58.860 1.500E-01 0.500 F 0.033 0.418 +18° 29' 13.00" 1.000E-01 0.500 F 0.128 -0.071 21.3 V 0.70 0.54 c 691 0.86 Yes Yes
2003WO7 O C 2003-12-19.34183 1.000E-05 04:34:56.940 1.500E-01 0.500 F 0.033 0.370 +18° 29' 20.70" 1.000E-01 0.500 F 0.128 0.155 21.4 V 0.70 0.64 c 691 0.81 Yes Yes
2003WO7 O C 2003-12-19.36967 1.000E-05 04:34:54.980 1.500E-01 0.500 F 0.033 0.371 +18° 29' 28.10" 1.000E-01 0.500 F 0.128 -0.062 21.7 V 0.70 0.94 c 691 0.76 Yes Yes
1999MM O C 2003-12-19.47095 1.000E-05 11:59:37.450 1.500E-01 0.500 F 0.518 0.078 +01° 26' 14.30" 1.000E-01 0.500 F 0.397 -0.165 21.0 V 0.70 0.33 c 691 0.37 Yes Yes
1999MM O C 2003-12-19.48467 1.000E-05 11:59:37.390 1.500E-01 0.500 F 0.518 0.041 +01° 26' 21.00" 1.000E-01 0.500 F 0.397 -0.316 20.7 V 0.70 0.03 c 691 0.64 Yes Yes
1999MM O C 2003-12-19.49856 1.000E-05 11:59:37.310 1.500E-01 0.500 F 0.518 -0.234 +01° 26' 28.40" 1.000E-01 0.500 F 0.397 0.146 20.9 V 0.70 0.23 c 691 0.55 Yes Yes
2003QB90 O C 2003-12-21.19117 1.000E-05 03:38:54.590 1.500E-01 0.500 F -0.187 0.255 +11° 21' 11.60" 1.000E-01 0.500 F 0.373 0.044 20.5 V 0.70 0.23 c 691 0.52 Yes Yes
2006SV19 O C 2003-12-21.19667 1.000E-05 03:34:13.590 1.500E-01 0.500 F -0.068 -0.168 +10° 08' 19.00" 1.000E-01 0.500 F 0.344 -0.197 22.4 V 0.70 1.30 c 691 0.52 Yes Yes
2003QB90 O C 2003-12-21.21849 1.000E-05 03:38:53.990 1.500E-01 0.500 F -0.187 0.192 +11° 21' 20.50" 1.000E-01 0.500 F 0.373 -0.015 20.6 V 0.70 0.33 c 691 0.39 Yes Yes
2006SV19 O C 2003-12-21.22379 1.000E-05 03:34:12.380 1.500E-01 0.500 F -0.068 -0.296 +10° 08' 24.50" 1.000E-01 0.500 F 0.344 0.404 22.6 V 0.70 1.50 c 691 1.00 Yes Yes
2003QB90 O C 2003-12-21.24748 1.000E-05 03:38:53.350 1.500E-01 0.500 F -0.187 0.038 +11° 21' 30.00" 1.000E-01 0.500 F 0.373 0.023 20.5 V 0.70 0.23 c 691 0.09 Yes Yes
2006SV19 O C 2003-12-21.25337 1.000E-05 03:34:11.100 1.500E-01 0.500 F -0.068 0.110 +10° 08' 29.10" 1.000E-01 0.500 F 0.344 -0.315 22.0 V 0.70 0.90 c 691 0.67 Yes Yes
2003YM137 O C 2003-12-21.32056 1.000E-05 08:11:46.370 1.500E-01 0.500 F 0.054 -0.005 +22° 38' 31.00" 1.000E-01 0.500 F 0.362 -0.263 20.3 V 0.70 0.37 c 691 0.53 Yes Yes
2003YM137 O C 2003-12-21.35096 1.000E-05 08:11:46.350 1.500E-01 0.500 F 0.054 0.229 +22° 38' 40.30" 1.000E-01 0.500 F 0.362 -0.153 20.5 V 0.70 0.57 c 691 0.55 Yes Yes
2003YM137 O C 2003-12-21.37761 1.000E-05 08:11:46.300 1.500E-01 0.500 F 0.054 0.119 +22° 38' 48.30" 1.000E-01 0.500 F 0.362 -0.105 20.2 V 0.70 0.27 c 691 0.32 Yes Yes
Ivar O C 2003-12-22.18101 1.000E-05 03:55:09.540 1.500E-01 0.500 F -0.018 -0.119 +07° 17' 18.60" 1.000E-01 0.500 F 0.256 0.269 15.7 V 0.70 0.02 c 691 0.59 Yes Yes
Ivar O C 2003-12-22.20867 1.000E-05 03:55:08.150 1.500E-01 0.500 F -0.018 0.929 +07° 17' 26.20" 1.000E-01 0.500 F 0.256 0.190 15.2 V 0.70 -0.48 c 691 1.90 Yes Yes
Ivar O C 2003-12-22.23634 1.000E-05 03:55:06.620 1.500E-01 0.500 F -0.018 -0.108 +07° 17' 33.90" 1.000E-01 0.500 F 0.256 0.225 15.9 V 0.70 0.22 c 691 0.50 Yes Yes

[1-200] [201-400] [401-600] [601-800] [801-1000] [1001-1200] [1201-1400] [1401-1600] [1601-1800] [1801-2000] [2001-2200] [2201-2400] [2401-2600] [2601-2800] [2801-3000] [3001-3200] [3201-3400] [3401-3600] [3601-3800] [3801-4000] [4001-4200] [4201-4400] [4401-4600] [4601-4800] [4801-5000] [5001-5200] [5201-5400] [5401-5600] [5601-5800] [5801-6000] [6001-6200] [6201-6400] [6401-6600] [6601-6800] [6801-7000] [7001-7200] [7201-7400] [7401-7600] [7601-7800] [7801-8000] [8001-8200] [8201-8400] [8401-8600] [8601-8800] [8801-9000] [9001-9200] [9201-9400] [9401-9600] [9601-9800] [9801-10000] [10001-10200] [10201-10400] [10401-10600] [10601-10800] [10801-11000] [11001-11200] [11201-11400] [11401-11600] [11601-11800] [11801-12000] [12001-12200] [12201-12400] [12401-12600] [12601-12800] [12801-13000] [13001-13200] [13201-13400] [13401-13600] [13601-13800] [13801-14000] [14001-14200] [14201-14400] [14401-14600] [14601-14800] [14801-15000] [15001-15200] [15201-15400] [15401-15600] [15601-15800] [15801-16000] [16001-16200] [16201-16400] [16401-16600] [16601-16800] [16801-17000] [17001-17200] [17201-17400] [17401-17600] [17601-17800] [17801-18000] [18001-18200] [18201-18400] [18401-18600] [18601-18800] [18801-19000] [19001-19200] [19201-19400] [19401-19600] [19601-19800] [19801-20000] [20001-20200] [20201-20400] [20401-20600] [20601-20800] [20801-21000] [21001-21200] [21201-21400] [21401-21600] [21601-21800] [21801-22000] [22001-22200] [22201-22400] [22401-22600] [22601-22800] [22801-23000] [23001-23200] [23201-23400] [23401-23600] [23601-23800] [23801-24000] [24001-24200] [24201-24400] [24401-24600] [24601-24800] [24801-25000] [25001-25200] [25201-25400] [25401-25600] [25601-25800] [25801-26000] [26001-26200] [26201-26400] [26401-26600] [26601-26800] [26801-27000] [27001-27200] [27201-27400] [27401-27600] [27601-27800] [27801-28000] [28001-28200] [28201-28400] [28401-28600] [28601-28800] [28801-29000] [29001-29200] [29201-29400] [29401-29600] [29601-29800] [29801-30000] [30001-30200] [30201-30400] [30401-30600] [30601-30800] [30801-31000] [31001-31200] [31201-31400] [31401-31600] [31601-31800] [31801-32000] [32001-32200] [32201-32400] [32401-32600] [32601-32800] [32801-33000] [33001-33200] [33201-33400] [33401-33600] [33601-33800] [33801-34000] [34001-34200] [34201-34400] [34401-34600] [34601-34800] [34801-35000] [35001-35200] [35201-35400] [35401-35600] [35601-35800] [35801-36000] [36001-36200] [36201-36400] [36401-36600] [36601-36800] [36801-37000] [37001-37200] [37201-37400] [37401-37600] [37601-37800] [37801-38000] [38001-38200] [38201-38400] [38401-38600] [38601-38800] [38801-39000] [39001-39200] [39201-39400] [39401-39600] [39601-39800] [39801-40000] [40001-40200] [40201-40400] [40401-40600] [40601-40800] [40801-41000] [41001-41200] [41201-41400] [41401-41600] [41601-41800] [41801-42000] [42001-42200] [42201-42400] [42401-42600] [42601-42800] [42801-43000] [43001-43200] [43201-43400] [43401-43600] [43601-43800] [43801-44000] [44001-44200] [44201-44400] [44401-44600] [44601-44800] [44801-45000] [45001-45200] [45201-45400] [45401-45600] [45601-45800] [45801-46000] [46001-46200] [46201-46400] [46401-46600] [46601-46800] [46801-47000] [47001-47200] [47201-47400] [47401-47600] [47601-47800] [47801-48000] [48001-48200] [48201-48400] [48401-48600] [48601-48800] [48801-49000] [49001-49200] [49201-49400] [49401-49600] [49601-49800] [49801-50000] [50001-50200] [50201-50388]